Time;durP1;ratioP1;P1;durP2;ratioP2;P2;SDS_P1;SDS_P2;PMS_P1;PMS_P2;Temp;Humidity;BMP_temperature;BMP_pressure;BME280_temperature;BME280_humidity;BME280_pressure;Samples;Min_cycle;Max_cycle;Signal;HPM_P1;HPM_P2
2021/01/27 00:02:09;;;;;;;22.00;11.90;;;2.10;99.90;;;;;;5055541;28;20044;-82
2021/01/27 00:04:35;;;;;;;21.02;11.38;;;2.10;99.90;;;;;;5055775;28;20075;-82
2021/01/27 00:07:01;;;;;;;21.05;11.32;;;2.10;99.90;;;;;;5055670;28;20049;-83
2021/01/27 00:09:27;;;;;;;18.73;11.70;;;2.10;99.90;;;;;;5054618;28;20028;-82
2021/01/27 00:11:53;;;;;;;21.60;11.98;;;2.10;99.90;;;;;;5055488;28;20025;-81
2021/01/27 00:14:19;;;;;;;19.13;11.32;;;2.10;99.90;;;;;;5055886;28;20104;-82
2021/01/27 00:16:44;;;;;;;22.00;12.35;;;2.10;99.90;;;;;;5055595;28;20475;-82
2021/01/27 00:19:10;;;;;;;23.80;13.68;;;2.10;99.90;;;;;;5055744;28;20383;-81
2021/01/27 00:21:37;;;;;;;31.40;14.27;;;2.10;99.90;;;;;;5055816;28;20029;-80
2021/01/27 00:24:03;;;;;;;26.70;15.18;;;2.10;99.90;;;;;;5054662;28;20069;-81
2021/01/27 00:26:29;;;;;;;27.38;14.52;;;2.00;99.90;;;;;;5055652;28;20064;-81
2021/01/27 00:28:54;;;;;;;29.88;15.05;;;2.00;99.90;;;;;;5053876;28;20048;-82
2021/01/27 00:31:20;;;;;;;28.88;15.52;;;2.00;99.90;;;;;;5055349;28;20024;-80
2021/01/27 00:33:46;;;;;;;32.60;17.38;;;2.00;99.90;;;;;;5053789;28;20380;-81
2021/01/27 00:36:12;;;;;;;34.22;18.08;;;2.00;99.90;;;;;;5055004;28;20036;-80
2021/01/27 00:38:38;;;;;;;33.20;18.42;;;2.00;99.90;;;;;;5054420;28;20048;-81
2021/01/27 00:41:04;;;;;;;35.22;19.70;;;2.00;99.90;;;;;;5054953;28;20068;-82
2021/01/27 00:43:29;;;;;;;36.50;20.33;;;2.00;99.90;;;;;;5054926;28;20049;-81
2021/01/27 00:45:55;;;;;;;35.33;17.67;;;2.00;99.90;;;;;;5054905;28;20024;-81
2021/01/27 00:48:22;;;;;;;38.28;19.33;;;2.00;99.90;;;;;;5054809;28;20041;-80
2021/01/27 00:50:48;;;;;;;35.70;19.08;;;2.00;99.90;;;;;;5055002;28;20021;-81
2021/01/27 00:53:14;;;;;;;42.65;20.13;;;1.90;99.90;;;;;;5054806;28;20022;-81
2021/01/27 00:55:40;;;;;;;47.63;23.27;;;1.90;99.90;;;;;;5054590;28;20122;-81
2021/01/27 00:58:06;;;;;;;40.78;21.40;;;1.90;99.90;;;;;;5054371;28;20479;-82
2021/01/27 01:00:34;;;;;;;40.97;21.65;;;1.90;99.90;;;;;;5054561;28;20029;-81
2021/01/27 01:03:00;;;;;;;51.17;24.58;;;1.90;99.90;;;;;;5053391;28;20041;-81
2021/01/27 01:05:32;;;;;;;42.17;21.67;;;1.90;99.90;;;;;;5054340;28;20478;-81
2021/01/27 01:07:58;;;;;;;42.85;21.80;;;1.90;99.90;;;;;;5054348;28;20017;-82
2021/01/27 01:10:30;;;;;;;41.50;21.38;;;1.90;99.90;;;;;;5054351;28;20021;-82
2021/01/27 01:12:56;;;;;;;37.33;19.80;;;1.90;99.90;;;;;;5054522;28;20025;-82
2021/01/27 01:15:23;;;;;;;36.65;17.98;;;1.90;99.90;;;;;;5053977;28;20025;-81
2021/01/27 01:17:49;;;;;;;37.05;20.00;;;1.80;99.90;;;;;;5053081;28;20033;-82
2021/01/27 01:20:16;;;;;;;41.35;20.85;;;1.80;99.90;;;;;;5054143;28;20024;-81
2021/01/27 01:23:03;;;;;;;48.20;23.70;;;1.80;99.90;;;;;;5054053;28;20029;-81
2021/01/27 01:25:31;;;;;;;58.72;29.02;;;1.80;99.90;;;;;;5052256;28;20399;-81
2021/01/27 01:27:57;;;;;;;59.95;30.48;;;1.80;99.90;;;;;;5054041;28;20386;-82
2021/01/27 01:30:30;;;;;;;56.30;28.05;;;1.80;99.90;;;;;;5052556;28;20025;-83
2021/01/27 01:32:58;;;;;;;;;;;1.80;99.90;;;;;;5052745;28;20017;-83
2021/01/27 01:35:24;;;;;;;53.28;25.23;;;1.80;99.90;;;;;;5054106;28;19955;-82
2021/01/27 01:37:50;;;;;;;71.60;33.60;;;1.80;99.90;;;;;;5053992;28;20041;-81
2021/01/27 01:40:29;;;;;;;90.07;40.63;;;1.80;99.90;;;;;;5052870;28;20056;-81
2021/01/27 01:43:09;;;;;;;98.50;46.15;;;1.70;99.90;;;;;;5053701;28;20029;-81
2021/01/27 01:45:43;;;;;;;102.80;48.05;;;1.70;99.90;;;;;;5053811;28;20024;-82
2021/01/27 01:48:24;;;;;;;104.20;49.25;;;1.70;99.90;;;;;;5054094;28;20025;-81
2021/01/27 01:50:54;;;;;;;95.97;43.60;;;1.70;99.90;;;;;;5053565;28;20100;-81
2021/01/27 01:53:22;;;;;;;86.22;43.03;;;1.70;99.90;;;;;;5052314;28;20486;-82
2021/01/27 01:55:49;;;;;;;104.25;50.60;;;1.70;99.90;;;;;;5052873;28;20467;-81
2021/01/27 01:58:15;;;;;;;93.93;45.05;;;1.70;99.90;;;;;;5053367;28;20059;-82
2021/01/27 02:00:41;;;;;;;86.13;42.17;;;1.70;99.90;;;;;;5053473;28;20029;-81
2021/01/27 02:03:13;;;;;;;93.32;44.60;;;1.70;99.90;;;;;;5053059;28;20052;-82
2021/01/27 02:05:39;;;;;;;84.20;39.08;;;1.70;99.90;;;;;;5053593;28;20028;-82
2021/01/27 02:08:06;;;;;;;71.25;34.92;;;1.70;99.90;;;;;;5053808;28;20036;-83
2021/01/27 02:10:31;;;;;;;71.78;36.50;;;1.70;99.90;;;;;;5053725;28;20048;-83
2021/01/27 02:13:54;;;;;;;68.88;32.40;;;1.80;99.90;;;;;;5053642;28;20060;-82
2021/01/27 02:16:26;;;;;;;65.47;31.87;;;1.70;99.90;;;;;;5049086;28;20111;-82
2021/01/27 02:19:14;;;;;;;65.03;31.98;;;1.80;99.90;;;;;;5053488;28;20270;-83
2021/01/27 02:22:13;;;;;;;73.03;35.78;;;1.70;99.90;;;;;;5051879;28;20387;-83
2021/01/27 02:24:57;;;;;;;66.55;32.80;;;1.80;99.90;;;;;;5053863;28;20094;-83
2021/01/27 02:27:25;;;;;;;66.03;30.63;;;1.80;99.90;;;;;;5053523;28;20124;-82
2021/01/27 02:30:03;;;;;;;72.47;35.17;;;1.90;99.90;;;;;;5053324;28;20021;-83
2021/01/27 02:32:43;;;;;;;64.22;30.05;;;1.90;99.90;;;;;;5052052;28;20080;-82
2021/01/27 02:35:28;;;;;;;49.85;25.75;;;1.90;99.90;;;;;;5053020;28;20036;-82
2021/01/27 02:38:11;;;;;;;42.22;21.98;;;2.00;99.90;;;;;;5053468;28;20025;-82
2021/01/27 02:40:45;;;;;;;55.85;27.58;;;2.00;99.90;;;;;;5052183;28;20175;-81
2021/01/27 02:43:24;;;;;;;88.10;39.83;;;2.00;99.90;;;;;;5053354;28;20068;-82
2021/01/27 02:46:02;;;;;;;68.50;30.05;;;2.00;99.90;;;;;;5053307;28;20056;-80
2021/01/27 02:48:44;;;;;;;63.65;29.83;;;2.10;99.90;;;;;;5053399;28;20036;-81
2021/01/27 02:51:17;;;;;;;;;;;2.10;99.90;;;;;;5052540;28;20071;-82
2021/01/27 02:53:52;;;;;;;34.72;18.33;;;2.10;99.90;;;;;;5053272;28;20282;-81
2021/01/27 02:56:36;;;;;;;34.60;18.63;;;2.20;99.90;;;;;;5053645;28;20029;-81
2021/01/27 02:59:06;;;;;;;33.50;17.70;;;2.10;99.90;;;;;;5053771;28;20029;-82
2021/01/27 03:01:59;;;;;;;31.45;15.82;;;2.10;99.90;;;;;;5053263;28;20049;-78
2021/01/27 03:04:36;;;;;;;32.38;16.38;;;2.20;99.90;;;;;;5051830;28;20414;-78
2021/01/27 03:07:03;;;;;;;28.42;15.65;;;2.20;99.90;;;;;;5051707;28;20104;-78
2021/01/27 03:09:56;;;;;;;31.38;15.60;;;2.20;99.90;;;;;;5052024;28;20029;-81
2021/01/27 03:12:21;;;;;;;29.10;16.73;;;2.20;99.90;;;;;;5052469;28;20103;-81
2021/01/27 03:14:48;;;;;;;28.85;15.65;;;2.30;99.90;;;;;;5052711;28;20120;-82
2021/01/27 03:17:17;;;;;;;36.83;16.02;;;2.20;99.90;;;;;;5052939;28;20057;-82
2021/01/27 03:20:02;;;;;;;35.28;19.02;;;2.30;99.90;;;;;;5052962;28;20029;-82
2021/01/27 03:22:51;;;;;;;31.83;17.75;;;2.30;99.90;;;;;;5051438;28;20415;-82
2021/01/27 03:25:23;;;;;;;30.55;17.27;;;2.30;99.90;;;;;;5052603;28;20040;-82
2021/01/27 03:28:06;;;;;;;30.33;16.58;;;2.30;99.90;;;;;;5054027;28;20082;-82
2021/01/27 03:30:32;;;;;;;39.95;21.33;;;2.30;99.90;;;;;;5053847;28;20029;-82
2021/01/27 03:33:07;;;;;;;42.85;20.90;;;2.30;99.90;;;;;;5054307;28;20372;-82
2021/01/27 03:35:35;;;;;;;44.53;21.85;;;2.30;99.90;;;;;;5056237;28;20418;-81
2021/01/27 03:38:11;;;;;;;38.53;20.05;;;2.30;99.90;;;;;;5055148;28;20025;-82
2021/01/27 03:40:38;;;;;;;43.55;22.05;;;2.30;99.90;;;;;;5056241;28;20071;-82
2021/01/27 03:43:15;;;;;;;47.35;23.50;;;2.30;99.90;;;;;;5054853;28;20379;-81
2021/01/27 03:45:49;;;;;;;42.47;22.02;;;2.30;99.90;;;;;;5055938;28;20025;-82
2021/01/27 03:48:38;;;;;;;43.50;21.75;;;2.30;99.90;;;;;;5056166;28;20486;-81
2021/01/27 03:51:05;;;;;;;42.30;22.77;;;2.30;99.90;;;;;;5056200;28;20087;-82
2021/01/27 03:53:33;;;;;;;43.53;23.60;;;2.30;99.90;;;;;;5056049;28;20071;-82
2021/01/27 03:56:02;;;;;;;41.25;22.60;;;2.30;99.90;;;;;;5053878;28;20075;-77
2021/01/27 03:58:35;;;;;;;33.95;19.23;;;2.30;99.90;;;;;;5052999;28;20363;-78
2021/01/27 04:01:10;;;;;;;31.80;16.63;;;2.40;99.90;;;;;;5054234;28;20036;-78
2021/01/27 04:03:36;;;;;;;30.83;16.10;;;2.40;99.90;;;;;;5054076;28;20029;-78
2021/01/27 04:06:03;;;;;;;23.55;14.27;;;2.40;99.90;;;;;;5052920;28;20032;-77
2021/01/27 04:08:29;;;;;;;26.67;14.88;;;2.40;99.90;;;;;;5052899;28;20351;-77
2021/01/27 04:10:55;;;;;;;25.23;14.88;;;2.40;99.90;;;;;;5054183;28;20032;-78
2021/01/27 04:13:21;;;;;;;24.90;13.90;;;2.40;99.90;;;;;;5054115;28;20025;-78
2021/01/27 04:15:47;;;;;;;29.08;15.63;;;2.40;99.90;;;;;;5053999;28;20140;-78
2021/01/27 04:18:12;;;;;;;27.13;14.65;;;2.40;99.90;;;;;;5052828;28;20025;-78
2021/01/27 04:20:38;;;;;;;34.30;16.75;;;2.40;99.90;;;;;;5053735;28;20094;-78
2021/01/27 04:23:04;;;;;;;39.00;19.60;;;2.40;99.90;;;;;;5053744;28;20036;-78
2021/01/27 04:25:30;;;;;;;44.13;21.92;;;2.40;99.90;;;;;;5053607;28;20021;-78
2021/01/27 04:27:56;;;;;;;52.90;26.70;;;2.40;99.90;;;;;;5052341;28;20021;-78
2021/01/27 04:30:26;;;;;;;54.28;26.85;;;2.40;99.90;;;;;;5052261;28;20113;-78
2021/01/27 04:32:52;;;;;;;65.13;34.65;;;2.40;99.90;;;;;;5053791;28;20043;-78
2021/01/27 04:35:18;;;;;;;68.03;37.63;;;2.40;99.90;;;;;;5052378;28;20064;-78
2021/01/27 04:37:44;;;;;;;84.43;43.45;;;2.40;99.90;;;;;;5053649;28;20051;-78
2021/01/27 04:40:33;;;;;;;53.40;32.08;;;2.40;99.90;;;;;;5053598;28;20352;-77
2021/01/27 04:42:59;;;;;;;38.95;21.73;;;2.40;99.90;;;;;;5052096;28;20028;-77
2021/01/27 04:45:26;;;;;;;37.65;20.25;;;2.40;99.90;;;;;;5053286;28;20025;-77
2021/01/27 04:48:00;;;;;;;33.88;18.90;;;2.40;99.90;;;;;;5053126;28;20052;-77
2021/01/27 04:50:31;;;;;;;32.50;17.80;;;2.40;99.90;;;;;;5051695;28;20028;-78
2021/01/27 04:53:29;;;;;;;31.80;20.10;;;2.40;99.90;;;;;;5053390;28;20029;-78
2021/01/27 04:56:29;;;;;;;33.28;18.33;;;2.40;99.90;;;;;;5052023;28;20464;-78
2021/01/27 04:59:17;;;;;;;38.30;20.33;;;2.40;99.90;;;;;;5053499;28;20025;-78
2021/01/27 05:02:21;;;;;;;64.45;32.38;;;2.40;99.90;;;;;;5051916;28;20772;-80
2021/01/27 05:05:00;;;;;;;71.22;34.92;;;2.50;99.90;;;;;;5042833;28;20044;-80
2021/01/27 05:07:45;;;;;;;55.80;29.10;;;2.50;99.90;;;;;;5053180;28;20021;-79
2021/01/27 05:10:16;;;;;;;63.67;35.72;;;2.50;99.90;;;;;;5048784;28;20037;-79
2021/01/27 05:12:50;;;;;;;68.10;40.85;;;2.50;99.90;;;;;;5052897;28;20071;-80
2021/01/27 05:15:17;;;;;;;74.90;38.25;;;2.40;99.90;;;;;;5052842;28;20379;-79
2021/01/27 05:17:46;;;;;;;93.07;42.92;;;2.50;99.90;;;;;;5052739;28;20052;-79
2021/01/27 05:20:15;;;;;;;135.27;61.35;;;2.50;99.90;;;;;;5052246;28;20017;-79
2021/01/27 05:22:41;;;;;;;127.30;56.10;;;2.50;99.90;;;;;;5051024;28;20025;-80
2021/01/27 05:25:16;;;;;;;104.20;47.47;;;2.50;99.90;;;;;;5053245;28;20060;-79
2021/01/27 05:27:43;;;;;;;80.15;39.17;;;2.50;99.90;;;;;;5052588;28;20108;-78
2021/01/27 05:30:27;;;;;;;61.88;31.85;;;2.50;99.90;;;;;;5052947;28;20044;-80
2021/01/27 05:32:58;;;;;;;58.10;30.45;;;2.50;99.90;;;;;;5052754;28;20475;-81
2021/01/27 05:35:31;;;;;;;43.80;25.42;;;2.50;99.90;;;;;;5052785;28;20541;-80
2021/01/27 05:37:59;;;;;;;64.43;29.15;;;2.50;99.90;;;;;;5052617;28;20025;-80
2021/01/27 05:40:24;;;;;;;60.97;31.50;;;2.50;99.90;;;;;;5052571;28;20021;-80
2021/01/27 05:42:50;;;;;;;68.70;35.15;;;2.50;99.90;;;;;;5052679;28;20043;-80
2021/01/27 05:45:25;;;;;;;104.93;45.08;;;2.50;99.90;;;;;;5051426;28;20028;-80
2021/01/27 05:47:52;;;;;;;127.85;55.05;;;2.50;99.90;;;;;;5053130;28;20040;-78
2021/01/27 05:50:36;;;;;;;127.00;55.72;;;2.50;99.90;;;;;;5051956;28;20108;-80
2021/01/27 05:53:11;;;;;;;68.38;34.55;;;2.50;99.90;;;;;;5052219;28;20057;-79
2021/01/27 05:55:54;;;;;;;44.15;25.13;;;2.50;99.90;;;;;;5052118;28;20079;-80
2021/01/27 05:58:19;;;;;;;40.15;22.73;;;2.50;99.90;;;;;;5051786;28;20028;-80
2021/01/27 06:00:45;;;;;;;40.38;21.40;;;2.50;99.90;;;;;;5052004;28;20037;-80
2021/01/27 06:03:11;;;;;;;35.30;20.42;;;2.60;99.90;;;;;;5051858;28;20151;-81
2021/01/27 06:05:39;;;;;;;32.95;18.85;;;2.60;99.90;;;;;;5051592;28;20096;-81
2021/01/27 06:08:22;;;;;;;28.25;16.60;;;2.60;99.90;;;;;;5051958;28;20060;-81
2021/01/27 06:10:50;;;;;;;50.28;23.95;;;2.60;99.90;;;;;;5052254;28;20024;-82
2021/01/27 06:13:22;;;;;;;50.13;24.63;;;2.60;99.90;;;;;;5050844;28;20171;-80
2021/01/27 06:15:48;;;;;;;57.85;26.10;;;2.60;99.90;;;;;;5051795;28;20108;-80
2021/01/27 06:18:26;;;;;;;72.05;31.38;;;2.60;99.90;;;;;;5051984;28;20114;-79
2021/01/27 06:21:17;;;;;;;71.65;33.97;;;2.60;99.90;;;;;;5052340;28;20025;-81
2021/01/27 06:24:02;;;;;;;54.90;28.83;;;2.70;99.90;;;;;;5051109;28;20025;-82
2021/01/27 06:26:48;;;;;;;45.90;24.42;;;2.70;99.90;;;;;;5051782;28;20443;-82
2021/01/27 06:29:21;;;;;;;31.13;17.60;;;2.70;99.90;;;;;;5050478;28;20021;-83
2021/01/27 06:31:58;;;;;;;35.25;17.95;;;2.80;99.90;;;;;;5051981;28;20447;-82
2021/01/27 06:34:48;;;;;;;29.52;16.08;;;2.80;99.90;;;;;;5051608;28;20083;-83
2021/01/27 06:37:50;;;;;;;34.30;19.05;;;2.80;99.90;;;;;;5050676;28;20079;-82
2021/01/27 06:40:25;;;;;;;38.67;21.88;;;2.90;99.90;;;;;;5051106;28;20382;-82
2021/01/27 06:43:24;;;;;;;40.95;24.02;;;2.90;99.90;;;;;;5050075;28;20040;-81
2021/01/27 06:46:21;;;;;;;43.33;24.58;;;2.90;99.90;;;;;;5031055;28;20026;-83
2021/01/27 06:49:09;;;;;;;50.15;28.95;;;2.90;99.90;;;;;;5032453;28;20104;-82
2021/01/27 06:52:05;;;;;;;72.00;36.47;;;2.90;99.90;;;;;;5030826;28;20029;-83
2021/01/27 06:54:55;;;;;;;70.38;34.28;;;3.00;99.90;;;;;;5030884;28;20033;-82
2021/01/27 06:57:33;;;;;;;56.88;27.10;;;3.00;99.90;;;;;;5050782;28;20025;-83
2021/01/27 07:00:08;;;;;;;76.03;32.55;;;3.00;99.90;;;;;;5051459;28;20025;-83
2021/01/27 07:02:58;;;;;;;93.55;36.67;;;3.00;99.90;;;;;;5053556;28;20045;-83
2021/01/27 07:05:48;;;;;;;87.82;38.42;;;3.00;99.90;;;;;;5058570;28;20025;-89
2021/01/27 07:08:34;;;;;;;56.72;26.02;;;3.00;99.90;;;;;;5057600;28;20024;-90
2021/01/27 07:11:05;;;;;;;61.35;28.08;;;3.00;99.90;;;;;;5062577;28;20024;-89
2021/01/27 07:13:57;;;;;;;62.47;31.15;;;3.10;99.90;;;;;;5061216;28;20074;-88
2021/01/27 07:16:25;;;;;;;52.93;25.97;;;3.10;99.90;;;;;;5058800;28;20155;-89
2021/01/27 07:19:16;;;;;;;48.00;24.08;;;3.10;99.90;;;;;;5067826;28;20266;-88
2021/01/27 07:22:07;;;;;;;45.97;24.63;;;3.20;99.90;;;;;;5072796;28;20021;-89
2021/01/27 07:25:13;;;;;;;43.83;21.58;;;3.20;99.90;;;;;;5072795;28;20032;-88
2021/01/27 07:27:54;;;;;;;38.38;20.88;;;3.20;99.90;;;;;;5067089;28;20021;-90
2021/01/27 07:30:27;;;;;;;40.50;22.08;;;3.20;99.90;;;;;;5058831;28;20084;-92
2021/01/27 07:33:00;;;;;;;40.10;23.15;;;3.20;99.90;;;;;;5059390;28;20025;-91
2021/01/27 07:35:38;;;;;;;43.47;23.00;;;3.20;99.90;;;;;;5057930;28;20029;-90
2021/01/27 07:38:15;;;;;;;43.03;22.15;;;3.20;99.90;;;;;;5058502;28;20043;-90
2021/01/27 07:40:56;;;;;;;38.40;20.50;;;3.20;99.90;;;;;;5055197;28;20463;-90
2021/01/27 07:43:28;;;;;;;49.85;24.17;;;3.20;99.90;;;;;;5055607;28;20021;-89
2021/01/27 07:45:55;;;;;;;51.72;26.73;;;3.20;99.90;;;;;;5054667;28;20059;-89
2021/01/27 07:48:45;;;;;;;43.38;22.38;;;3.20;99.90;;;;;;5056269;28;20057;-90
2021/01/27 07:51:51;;;;;;;44.50;23.75;;;3.20;99.90;;;;;;5056740;28;20456;-89
2021/01/27 07:54:33;;;;;;;47.60;25.27;;;3.20;99.90;;;;;;5049992;28;20041;-88
2021/01/27 07:57:25;;;;;;;53.55;26.50;;;3.30;99.90;;;;;;5056124;28;20021;-90
2021/01/27 08:00:10;;;;;;;46.97;25.08;;;3.30;99.90;;;;;;5054461;28;20032;-82
2021/01/27 08:02:48;;;;;;;42.58;22.35;;;3.30;99.90;;;;;;5052808;28;20052;-82
2021/01/27 08:05:15;;;;;;;50.42;24.67;;;3.30;99.90;;;;;;5050251;28;20121;-90
2021/01/27 08:07:49;;;;;;;51.83;26.52;;;3.40;99.90;;;;;;5056022;28;20066;-89
2021/01/27 08:10:23;;;;;;;70.95;31.73;;;3.40;99.90;;;;;;5050516;28;20124;-89
2021/01/27 08:13:19;;;;;;;53.58;24.67;;;3.50;99.90;;;;;;5050450;28;20039;-92
2021/01/27 08:16:08;;;;;;;63.45;29.75;;;3.50;99.90;;;;;;5046908;28;20037;-90
2021/01/27 08:18:35;;;;;;;57.53;24.98;;;3.60;99.90;;;;;;5077894;28;20021;-89
2021/01/27 08:21:23;;;;;;;48.72;24.35;;;3.60;99.90;;;;;;5055424;28;20036;-89
2021/01/27 08:23:49;;;;;;;41.55;21.50;;;3.60;99.90;;;;;;5058341;28;20387;-91
2021/01/27 08:26:41;;;;;;;44.92;23.00;;;3.60;99.90;;;;;;5054724;28;20119;-92
2021/01/27 08:29:12;;;;;;;49.10;22.25;;;3.60;99.90;;;;;;5035494;28;20179;-91
2021/01/27 08:31:38;;;;;;;38.28;19.15;;;3.60;99.90;;;;;;5054609;28;20021;-92
2021/01/27 08:34:04;;;;;;;53.08;26.55;;;3.60;99.90;;;;;;5054728;28;20024;-91
2021/01/27 08:36:29;;;;;;;41.30;21.45;;;3.60;99.90;;;;;;5055472;28;20032;-92
2021/01/27 08:38:55;;;;;;;53.40;27.65;;;3.50;99.90;;;;;;5059386;28;20033;-92
2021/01/27 08:41:52;;;;;;;51.33;24.75;;;3.50;99.90;;;;;;5054730;28;20036;-93
2021/01/27 08:44:21;;;;;;;40.78;23.40;;;3.50;99.90;;;;;;5053922;28;20118;-91
2021/01/27 08:46:51;;;;;;;49.72;27.98;;;3.60;99.90;;;;;;5054656;28;20029;-92
2021/01/27 08:49:43;;;;;;;54.83;27.67;;;3.60;99.90;;;;;;5051801;28;20538;-91
2021/01/27 08:52:12;;;;;;;37.55;22.65;;;3.60;99.90;;;;;;5048546;28;20037;-92
2021/01/27 08:54:38;;;;;;;41.85;23.42;;;3.60;99.90;;;;;;5053638;28;20025;-89
2021/01/27 08:57:32;;;;;;;46.92;24.15;;;3.70;99.90;;;;;;5054712;28;20021;-91
2021/01/27 09:00:00;;;;;;;51.67;25.10;;;3.60;99.90;;;;;;5050329;28;20025;-91
2021/01/27 09:02:49;;;;;;;56.78;27.05;;;3.60;99.90;;;;;;5058176;28;20048;-92
2021/01/27 09:05:24;;;;;;;64.05;32.00;;;3.60;99.90;;;;;;5054838;28;20023;-90
2021/01/27 09:07:51;;;;;;;64.82;33.03;;;3.60;99.90;;;;;;5055254;28;20056;-91
2021/01/27 09:10:19;;;;;;;53.60;28.15;;;3.60;99.90;;;;;;5054766;28;20021;-90
2021/01/27 09:12:46;;;;;;;50.33;29.00;;;3.70;99.90;;;;;;5054029;28;20049;-89
2021/01/27 09:15:26;;;;;;;52.42;26.70;;;3.70;99.90;;;;;;5053284;28;20064;-90
2021/01/27 09:17:52;;;;;;;64.25;34.00;;;3.70;99.90;;;;;;5053016;28;20025;-90
2021/01/27 09:20:26;;;;;;;62.65;30.77;;;3.70;99.90;;;;;;5053339;28;20508;-90
2021/01/27 09:22:59;;;;;;;54.97;27.88;;;3.80;99.90;;;;;;5052855;28;20112;-89
2021/01/27 09:25:25;;;;;;;;;;;3.80;99.90;;;;;;5053954;28;20025;-89
2021/01/27 09:28:06;;;;;;;79.45;36.50;;;3.80;99.90;;;;;;5053142;28;19905;-88
2021/01/27 09:30:33;;;;;;;55.50;27.63;;;3.80;99.90;;;;;;5052727;28;20025;-89
2021/01/27 09:33:11;;;;;;;42.63;24.65;;;3.80;99.90;;;;;;5053032;28;20360;-89
2021/01/27 09:35:37;;;;;;;45.13;25.20;;;3.80;99.90;;;;;;5061510;28;20025;-87
2021/01/27 09:38:09;;;;;;;38.47;21.98;;;3.80;99.90;;;;;;5066518;28;20032;-89
2021/01/27 09:40:38;;;;;;;46.35;25.00;;;3.80;99.90;;;;;;5063404;28;20029;-87
2021/01/27 09:43:09;;;;;;;44.97;26.80;;;3.80;99.90;;;;;;5053493;28;20033;-89
2021/01/27 09:45:36;;;;;;;42.50;24.27;;;3.80;99.90;;;;;;5053412;28;20122;-85
2021/01/27 09:48:04;;;;;;;46.58;26.48;;;3.80;99.90;;;;;;5052741;28;20028;-85
2021/01/27 09:50:31;;;;;;;38.70;22.45;;;3.80;99.90;;;;;;5054059;28;20017;-85
2021/01/27 09:53:00;;;;;;;51.50;28.98;;;3.80;99.90;;;;;;5055427;28;20021;-85
2021/01/27 09:55:26;;;;;;;51.22;27.90;;;3.80;99.90;;;;;;5052106;28;20127;-85
2021/01/27 09:57:54;;;;;;;58.50;31.23;;;3.80;99.90;;;;;;5053303;28;20056;-85
2021/01/27 10:00:28;;;;;;;49.67;27.60;;;3.80;99.90;;;;;;5051905;28;20025;-85
2021/01/27 10:02:54;;;;;;;41.50;23.63;;;3.80;99.90;;;;;;5051422;28;20044;-86
2021/01/27 10:05:36;;;;;;;45.03;26.20;;;3.80;99.90;;;;;;5052179;28;20017;-86
2021/01/27 10:08:23;;;;;;;43.63;26.07;;;3.80;99.90;;;;;;5051567;28;20349;-86
2021/01/27 10:11:17;;;;;;;44.92;25.80;;;3.80;99.90;;;;;;5052469;28;20021;-90
2021/01/27 10:13:43;;;;;;;44.17;24.70;;;3.80;99.90;;;;;;5053910;28;20027;-85
2021/01/27 10:16:14;;;;;;;37.92;21.73;;;3.80;99.90;;;;;;5052469;28;20351;-86
2021/01/27 10:18:42;;;;;;;39.28;22.67;;;3.80;99.90;;;;;;5086177;28;20033;-87
2021/01/27 10:21:12;;;;;;;42.63;23.52;;;3.80;99.90;;;;;;5055436;28;20109;-87
2021/01/27 10:23:47;;;;;;;33.42;20.92;;;3.80;99.90;;;;;;5053834;28;20128;-85
2021/01/27 10:26:32;;;;;;;45.00;24.02;;;3.70;99.90;;;;;;5052251;28;20467;-85
2021/01/27 10:29:17;;;;;;;36.83;21.13;;;3.70;99.90;;;;;;5053079;28;20332;-86
2021/01/27 10:31:52;;;;;;;39.90;23.02;;;3.70;99.90;;;;;;5052992;28;20021;-87
2021/01/27 10:34:41;;;;;;;42.90;22.70;;;3.70;99.90;;;;;;5052756;28;20029;-85
2021/01/27 10:37:33;;;;;;;37.80;22.30;;;3.60;99.90;;;;;;5059877;28;20029;-86
2021/01/27 10:40:25;;;;;;;36.65;21.58;;;3.60;99.90;;;;;;5056521;28;20029;-86
2021/01/27 10:43:01;;;;;;;36.30;21.15;;;3.60;99.90;;;;;;5057575;28;20029;-86
2021/01/27 10:45:27;;;;;;;42.65;23.70;;;3.50;99.90;;;;;;5056153;28;20033;-85
2021/01/27 10:48:31;;;;;;;42.33;27.10;;;3.50;99.90;;;;;;5056025;28;20549;-84
2021/01/27 10:51:03;;;;;;;43.38;25.75;;;3.40;99.90;;;;;;5056455;28;20025;-85
2021/01/27 10:53:34;;;;;;;39.03;21.50;;;3.40;99.70;;;;;;5055644;28;20029;-85
2021/01/27 10:56:00;;;;;;;40.97;21.48;;;3.40;99.90;;;;;;5056383;28;20029;-85
2021/01/27 10:58:26;;;;;;;39.15;20.25;;;3.40;99.90;;;;;;5057520;28;20125;-85
2021/01/27 11:00:52;;;;;;;31.95;18.35;;;3.40;99.90;;;;;;5056743;28;20466;-85
2021/01/27 11:03:18;;;;;;;31.13;18.75;;;3.40;99.90;;;;;;5056240;28;20040;-86
2021/01/27 11:05:44;;;;;;;35.38;19.63;;;3.40;99.90;;;;;;5056862;28;20352;-86
2021/01/27 11:08:22;;;;;;;34.97;19.50;;;3.40;99.90;;;;;;5057256;28;20032;-86
2021/01/27 11:10:48;;;;;;;36.17;20.38;;;3.40;99.90;;;;;;5057077;28;20095;-86
2021/01/27 11:13:14;;;;;;;34.83;20.67;;;3.40;99.90;;;;;;5057741;28;20037;-85
2021/01/27 11:15:39;;;;;;;35.05;20.02;;;3.50;99.90;;;;;;5056856;28;20886;-86
2021/01/27 11:18:05;;;;;;;38.80;21.10;;;3.50;99.90;;;;;;5057626;28;20033;-85
2021/01/27 11:20:31;;;;;;;35.15;20.02;;;3.50;99.90;;;;;;5054980;28;20033;-85
2021/01/27 11:22:56;;;;;;;31.98;17.65;;;3.50;99.90;;;;;;5055942;28;20108;-85
2021/01/27 11:25:27;;;;;;;40.85;21.40;;;3.50;99.90;;;;;;5055986;28;20033;-85
2021/01/27 11:27:54;;;;;;;34.80;21.17;;;3.50;99.90;;;;;;5055768;28;20382;-85
2021/01/27 11:30:25;;;;;;;36.70;20.48;;;3.50;99.90;;;;;;5055044;28;20029;-84
2021/01/27 11:32:52;;;;;;;38.40;20.38;;;3.50;99.90;;;;;;5055411;28;20029;-84
2021/01/27 11:35:20;;;;;;;57.28;30.67;;;3.50;99.90;;;;;;5055571;28;20112;-83
2021/01/27 11:37:47;;;;;;;61.05;29.08;;;3.50;99.90;;;;;;5054635;28;20041;-84
2021/01/27 11:40:16;;;;;;;43.35;22.95;;;3.50;99.90;;;;;;5059878;28;20036;-84
2021/01/27 11:42:41;;;;;;;35.78;20.35;;;3.40;99.90;;;;;;5055739;28;20032;-85
2021/01/27 11:45:08;;;;;;;36.20;18.60;;;3.50;99.90;;;;;;5053195;28;20028;-84
2021/01/27 11:47:35;;;;;;;35.95;20.38;;;3.40;99.90;;;;;;5052901;28;20486;-83
2021/01/27 11:50:00;;;;;;;27.65;16.27;;;3.40;99.90;;;;;;5052956;28;20048;-84
2021/01/27 11:52:26;;;;;;;28.75;16.40;;;3.40;99.90;;;;;;5055742;28;20501;-84
2021/01/27 11:54:52;;;;;;;25.30;14.45;;;3.40;99.90;;;;;;5054340;28;20110;-83
2021/01/27 11:57:19;;;;;;;25.88;14.60;;;3.40;99.90;;;;;;5053823;28;20025;-82
2021/01/27 11:59:45;;;;;;;30.73;17.17;;;3.40;99.90;;;;;;5054455;28;20017;-85
2021/01/27 12:02:11;;;;;;;27.00;15.32;;;3.40;99.90;;;;;;5053731;28;20048;-87
2021/01/27 12:04:36;;;;;;;22.27;13.68;;;3.40;99.90;;;;;;5055678;28;20100;-87
2021/01/27 12:07:04;;;;;;;26.60;16.10;;;3.40;99.90;;;;;;5054618;28;20025;-87
2021/01/27 12:09:30;;;;;;;39.03;21.90;;;3.30;99.90;;;;;;5055599;28;20032;-87
2021/01/27 12:11:56;;;;;;;28.42;17.58;;;3.30;99.90;;;;;;5055159;28;20476;-87
2021/01/27 12:14:23;;;;;;;31.00;16.65;;;3.30;99.90;;;;;;5054072;28;20372;-87
2021/01/27 12:16:49;;;;;;;30.85;15.25;;;3.30;99.90;;;;;;5055327;28;20032;-88
2021/01/27 12:19:14;;;;;;;22.95;13.30;;;3.20;99.80;;;;;;5054127;28;20439;-88
2021/01/27 12:21:40;;;;;;;27.08;16.13;;;3.20;99.70;;;;;;5054168;28;20032;-87
2021/01/27 12:24:06;;;;;;;26.88;15.52;;;3.10;99.70;;;;;;5053553;28;20090;-88
2021/01/27 12:26:33;;;;;;;30.85;15.77;;;3.10;99.70;;;;;;5055280;28;20058;-87
2021/01/27 12:28:58;;;;;;;29.15;17.52;;;3.10;99.90;;;;;;5053640;28;20472;-87
2021/01/27 12:31:25;;;;;;;28.95;17.90;;;3.00;99.70;;;;;;5055066;28;20104;-87
2021/01/27 12:33:52;;;;;;;25.40;14.32;;;3.00;99.60;;;;;;5055361;28;20060;-87
2021/01/27 12:36:18;;;;;;;27.80;15.80;;;2.90;99.70;;;;;;5055545;28;20044;-86
2021/01/27 12:38:44;;;;;;;23.42;14.35;;;2.90;99.70;;;;;;5057707;28;20122;-87
2021/01/27 12:41:10;;;;;;;36.45;21.20;;;2.90;99.90;;;;;;5053868;28;20028;-88
2021/01/27 12:43:35;;;;;;;35.20;19.65;;;2.80;99.80;;;;;;5054684;28;20035;-87
2021/01/27 12:46:02;;;;;;;33.95;18.65;;;2.80;99.70;;;;;;5054506;28;20100;-87
2021/01/27 12:48:29;;;;;;;34.53;20.02;;;2.70;99.80;;;;;;5056980;28;20111;-88
2021/01/27 12:50:55;;;;;;;34.17;19.52;;;2.70;99.80;;;;;;5054548;28;20024;-87
2021/01/27 12:53:21;;;;;;;31.50;18.25;;;2.70;99.80;;;;;;5053044;28;20116;-88
2021/01/27 12:55:47;;;;;;;36.03;20.45;;;2.70;99.90;;;;;;5053038;28;20448;-86
2021/01/27 12:58:12;;;;;;;35.13;17.58;;;2.60;99.70;;;;;;5055059;28;20099;-88
2021/01/27 13:00:38;;;;;;;38.25;20.92;;;2.60;99.70;;;;;;5056438;28;20048;-87
2021/01/27 13:03:04;;;;;;;47.30;29.25;;;2.60;99.90;;;;;;5054620;28;20113;-87
2021/01/27 13:05:29;;;;;;;45.30;25.27;;;2.50;99.80;;;;;;5052982;28;20060;-85
2021/01/27 13:07:55;;;;;;;57.63;27.27;;;2.60;99.90;;;;;;5054260;28;20025;-87
2021/01/27 13:10:21;;;;;;;51.78;24.65;;;2.50;99.90;;;;;;5054462;28;20040;-87